Aviation Digital Data Service (ADDS)

Output produced by TAFs form (1057 UTC 20 September 2017)
found at http://www.aviationweather.gov/adds/tafs/
 
KALB 200520Z 2006/2106 36005KT P6SM SCT100 BKN200 
     FM200800 36004KT P6SM BKN025 BKN150 
     FM201300 35010KT P6SM BKN150 
     FM210000 34005KT P6SM SCT050